Lodeynoye Pole, Russia
Current Conditions -  °F | °C
As of 4:00 AM on Sunday 21 Dec 2014 (Local Time) from ULPB Reporting Station
Light Snow Light Snow  
Wind Chill: 25°   Ceiling: NA
Heat Index: 34°   Visibility: 6mi
Dew Point: 28°   Wind: 11mph
Humidity: 81%   Direction: 220°SW
Pressure: 29"   Gusts: NA
Location:  60.73°N, 33.56°E
Report Text: ULPB 210100Z AUTO 22005MPS 9999 -SN ////// 01/M02 Q0982
Loading
Personal Weather Stations






























Interactive Weather Map New forecast layout! Learn more

10-Day Weather Forecast

Advertisements
Track Severe Weather on mobile